Terminal Aerodrome Forecast
Issued by NWS

Home | Current Version | Previous Version | Text Only | Print | Product List | Glossary On
Versions: 1 2 3 4 5 6 7 8 9 10 11 12 13
000
FTUS45 KGGW 270520
TAFOLF
TAF
KOLF 270520Z 2706/2806 11008KT P6SM VCSH SCT100 WS020/18040KT
     FM271200 VRB05KT P6SM SCT170
     FM271800 28014KT P6SM BKN110
     FM272100 32018G27KT P6SM VCSH BKN100
     FM280400 32009KT P6SM SCT130=

USA.gov is the U.S. government's official web portal to all federal, state and local government web resources and services.